sensor_id;sensor_type;location;lat;lon;timestamp;pressure;altitude;pressure_sealevel;temperature;humidity
42519;BME280;28147;47.520;18.920;2023-02-19T00:01:50;98513.41;;;13.39;53.80
42519;BME280;28147;47.520;18.920;2023-02-19T00:04:18;98523.56;;;13.37;53.89
42519;BME280;28147;47.520;18.920;2023-02-19T00:06:45;98529.72;;;13.38;53.95
42519;BME280;28147;47.520;18.920;2023-02-19T00:09:12;98529.91;;;13.31;53.98
42519;BME280;28147;47.520;18.920;2023-02-19T00:11:38;98525.84;;;13.51;53.81
42519;BME280;28147;47.520;18.920;2023-02-19T00:14:04;98517.84;;;13.12;54.02
42519;BME280;28147;47.520;18.920;2023-02-19T00:16:35;98517.16;;;13.22;53.96
42519;BME280;28147;47.520;18.920;2023-02-19T00:19:04;98517.03;;;13.28;53.87
42519;BME280;28147;47.520;18.920;2023-02-19T00:21:30;98518.09;;;13.49;53.33
42519;BME280;28147;47.520;18.920;2023-02-19T00:23:58;98510.31;;;13.48;53.22
42519;BME280;28147;47.520;18.920;2023-02-19T00:26:23;98519.25;;;13.58;52.89
42519;BME280;28147;47.520;18.920;2023-02-19T00:28:50;98525.22;;;13.66;52.77
42519;BME280;28147;47.520;18.920;2023-02-19T00:31:24;98521.63;;;13.55;53.06
42519;BME280;28147;47.520;18.920;2023-02-19T00:33:52;98527.38;;;13.42;53.29
42519;BME280;28147;47.520;18.920;2023-02-19T00:36:18;98522.69;;;13.54;52.96
42519;BME280;28147;47.520;18.920;2023-02-19T00:38:44;98525.50;;;13.64;53.00
42519;BME280;28147;47.520;18.920;2023-02-19T00:41:11;98521.31;;;13.51;53.02
42519;BME280;28147;47.520;18.920;2023-02-19T00:43:45;98516.13;;;13.67;52.77
42519;BME280;28147;47.520;18.920;2023-02-19T00:46:10;98517.16;;;13.60;52.87
42519;BME280;28147;47.520;18.920;2023-02-19T00:48:36;98513.78;;;13.70;52.70
42519;BME280;28147;47.520;18.920;2023-02-19T00:51:01;98510.88;;;13.72;52.50
42519;BME280;28147;47.520;18.920;2023-02-19T00:53:27;98508.38;;;13.43;52.57
42519;BME280;28147;47.520;18.920;2023-02-19T00:55:52;98515.66;;;13.48;53.14
42519;BME280;28147;47.520;18.920;2023-02-19T00:58:18;98521.13;;;13.58;52.86
42519;BME280;28147;47.520;18.920;2023-02-19T01:00:43;98512.22;;;13.52;52.93
42519;BME280;28147;47.520;18.920;2023-02-19T01:03:08;98514.00;;;13.42;53.64
42519;BME280;28147;47.520;18.920;2023-02-19T01:05:34;98511.63;;;13.23;53.74
42519;BME280;28147;47.520;18.920;2023-02-19T01:07:59;98514.97;;;13.35;54.01
42519;BME280;28147;47.520;18.920;2023-02-19T01:10:24;98511.38;;;13.08;54.25
42519;BME280;28147;47.520;18.920;2023-02-19T01:12:50;98505.66;;;13.21;54.22
42519;BME280;28147;47.520;18.920;2023-02-19T01:15:15;98516.84;;;13.35;53.83
42519;BME280;28147;47.520;18.920;2023-02-19T01:17:41;98498.31;;;13.28;53.95
42519;BME280;28147;47.520;18.920;2023-02-19T01:20:06;98495.47;;;13.18;54.13
42519;BME280;28147;47.520;18.920;2023-02-19T01:22:32;98499.50;;;13.21;54.50
42519;BME280;28147;47.520;18.920;2023-02-19T01:24:57;98499.50;;;13.21;54.50
42519;BME280;28147;47.520;18.920;2023-02-19T01:27:23;98498.66;;;13.37;54.03
42519;BME280;28147;47.520;18.920;2023-02-19T01:29:48;98500.81;;;13.35;54.14
42519;BME280;28147;47.520;18.920;2023-02-19T01:32:14;98501.84;;;13.56;53.97
42519;BME280;28147;47.520;18.920;2023-02-19T01:34:39;98514.97;;;13.57;53.70
42519;BME280;28147;47.520;18.920;2023-02-19T01:37:04;98512.44;;;13.46;53.93
42519;BME280;28147;47.520;18.920;2023-02-19T01:39:32;98512.47;;;13.29;54.11
42519;BME280;28147;47.520;18.920;2023-02-19T01:41:57;98505.84;;;13.31;54.15
42519;BME280;28147;47.520;18.920;2023-02-19T01:46:48;98497.88;;;13.36;53.79
42519;BME280;28147;47.520;18.920;2023-02-19T01:49:30;98505.03;;;13.53;53.58
42519;BME280;28147;47.520;18.920;2023-02-19T01:54:24;98499.72;;;13.58;53.60
42519;BME280;28147;47.520;18.920;2023-02-19T01:56:53;98491.88;;;13.51;53.82
42519;BME280;28147;47.520;18.920;2023-02-19T01:59:19;98501.59;;;13.35;54.34
42519;BME280;28147;47.520;18.920;2023-02-19T02:01:45;98490.38;;;13.33;54.38
42519;BME280;28147;47.520;18.920;2023-02-19T02:04:12;98478.03;;;13.32;54.77
42519;BME280;28147;47.520;18.920;2023-02-19T02:06:53;98486.38;;;13.36;54.56
42519;BME280;28147;47.520;18.920;2023-02-19T02:09:21;98479.81;;;13.05;55.21
42519;BME280;28147;47.520;18.920;2023-02-19T02:12:07;98498.72;;;13.20;55.19
42519;BME280;28147;47.520;18.920;2023-02-19T02:14:35;98476.88;;;13.23;54.72
42519;BME280;28147;47.520;18.920;2023-02-19T02:22:24;98478.38;;;12.80;56.30
42519;BME280;28147;47.520;18.920;2023-02-19T02:33:03;98468.03;;;13.06;55.98
42519;BME280;28147;47.520;18.920;2023-02-19T02:35:33;98467.38;;;13.15;55.59
42519;BME280;28147;47.520;18.920;2023-02-19T02:38:02;98466.47;;;13.27;55.31
42519;BME280;28147;47.520;18.920;2023-02-19T02:40:30;98467.81;;;13.51;54.80
42519;BME280;28147;47.520;18.920;2023-02-19T02:42:57;98472.56;;;13.22;55.50
42519;BME280;28147;47.520;18.920;2023-02-19T02:50:40;98467.69;;;13.19;55.98
42519;BME280;28147;47.520;18.920;2023-02-19T02:53:13;98473.50;;;13.33;55.72
42519;BME280;28147;47.520;18.920;2023-02-19T02:55:58;98467.34;;;13.32;55.76
42519;BME280;28147;47.520;18.920;2023-02-19T02:58:25;98476.47;;;13.36;55.98
42519;BME280;28147;47.520;18.920;2023-02-19T03:01:06;98470.31;;;13.36;55.71
42519;BME280;28147;47.520;18.920;2023-02-19T03:03:55;98468.13;;;13.11;56.50
42519;BME280;28147;47.520;18.920;2023-02-19T03:06:24;98463.97;;;13.20;56.10
42519;BME280;28147;47.520;18.920;2023-02-19T03:09:04;98455.88;;;13.15;56.50
42519;BME280;28147;47.520;18.920;2023-02-19T03:11:33;98469.38;;;13.25;55.98
42519;BME280;28147;47.520;18.920;2023-02-19T03:14:42;98468.84;;;13.23;56.00
42519;BME280;28147;47.520;18.920;2023-02-19T03:17:50;98466.59;;;13.15;56.05
42519;BME280;28147;47.520;18.920;2023-02-19T03:20:39;98466.59;;;13.15;56.04
42519;BME280;28147;47.520;18.920;2023-02-19T03:23:08;98463.19;;;13.03;56.31
42519;BME280;28147;47.520;18.920;2023-02-19T03:25:36;98477.50;;;13.13;55.91
42519;BME280;28147;47.520;18.920;2023-02-19T03:28:22;98471.97;;;12.98;56.19
42519;BME280;28147;47.520;18.920;2023-02-19T03:31:12;98457.16;;;12.90;56.21
42519;BME280;28147;47.520;18.920;2023-02-19T03:33:40;98457.78;;;12.98;56.20
42519;BME280;28147;47.520;18.920;2023-02-19T03:36:09;98463.59;;;13.11;55.84
42519;BME280;28147;47.520;18.920;2023-02-19T03:38:51;98465.44;;;12.89;56.22
42519;BME280;28147;47.520;18.920;2023-02-19T03:44:15;98475.09;;;12.73;56.64
42519;BME280;28147;47.520;18.920;2023-02-19T03:49:57;98469.56;;;12.80;56.51
42519;BME280;28147;47.520;18.920;2023-02-19T03:55:13;98462.69;;;12.84;56.65
42519;BME280;28147;47.520;18.920;2023-02-19T03:58:11;98466.84;;;12.75;56.69
42519;BME280;28147;47.520;18.920;2023-02-19T04:00:47;98457.84;;;12.81;56.64
42519;BME280;28147;47.520;18.920;2023-02-19T04:06:02;98466.09;;;12.79;56.18
42519;BME280;28147;47.520;18.920;2023-02-19T04:08:32;98465.91;;;12.86;56.22
42519;BME280;28147;47.520;18.920;2023-02-19T04:10:59;98457.13;;;12.69;56.55
42519;BME280;28147;47.520;18.920;2023-02-19T04:13:29;98467.09;;;12.73;56.52
42519;BME280;28147;47.520;18.920;2023-02-19T04:16:00;98460.31;;;12.65;56.75
42519;BME280;28147;47.520;18.920;2023-02-19T04:18:30;98462.13;;;12.65;56.97
42519;BME280;28147;47.520;18.920;2023-02-19T04:20:59;98469.66;;;12.68;56.75
42519;BME280;28147;47.520;18.920;2023-02-19T04:23:29;98452.38;;;12.54;56.91
42519;BME280;28147;47.520;18.920;2023-02-19T04:25:57;98464.84;;;12.48;57.40
42519;BME280;28147;47.520;18.920;2023-02-19T04:28:24;98460.63;;;12.69;56.50
42519;BME280;28147;47.520;18.920;2023-02-19T04:30:50;98474.59;;;12.76;56.21
42519;BME280;28147;47.520;18.920;2023-02-19T04:33:15;98468.94;;;12.73;56.45
42519;BME280;28147;47.520;18.920;2023-02-19T04:35:40;98476.16;;;12.55;56.79
42519;BME280;28147;47.520;18.920;2023-02-19T04:38:06;98469.88;;;12.61;56.72
42519;BME280;28147;47.520;18.920;2023-02-19T04:40:31;98458.66;;;12.64;56.69
42519;BME280;28147;47.520;18.920;2023-02-19T04:42:57;98467.41;;;12.60;56.62
42519;BME280;28147;47.520;18.920;2023-02-19T04:45:22;98467.63;;;12.75;56.55
42519;BME280;28147;47.520;18.920;2023-02-19T04:47:47;98490.38;;;12.61;56.85
42519;BME280;28147;47.520;18.920;2023-02-19T04:50:13;98484.91;;;12.51;56.93
42519;BME280;28147;47.520;18.920;2023-02-19T04:52:38;98489.09;;;12.63;56.99
42519;BME280;28147;47.520;18.920;2023-02-19T04:55:04;98483.50;;;12.65;57.12
42519;BME280;28147;47.520;18.920;2023-02-19T04:57:30;98481.44;;;12.50;57.49
42519;BME280;28147;47.520;18.920;2023-02-19T04:59:55;98476.97;;;12.56;57.53
42519;BME280;28147;47.520;18.920;2023-02-19T05:02:21;98474.03;;;12.74;57.40
42519;BME280;28147;47.520;18.920;2023-02-19T05:04:46;98469.03;;;12.61;57.93
42519;BME280;28147;47.520;18.920;2023-02-19T05:07:12;98469.53;;;12.58;58.39
42519;BME280;28147;47.520;18.920;2023-02-19T05:09:37;98466.00;;;12.35;59.28
42519;BME280;28147;47.520;18.920;2023-02-19T05:12:03;98473.66;;;12.49;58.78
42519;BME280;28147;47.520;18.920;2023-02-19T05:14:28;98463.56;;;12.51;58.88
42519;BME280;28147;47.520;18.920;2023-02-19T05:16:53;98458.94;;;12.46;59.31
42519;BME280;28147;47.520;18.920;2023-02-19T05:19:19;98456.84;;;12.31;59.79
42519;BME280;28147;47.520;18.920;2023-02-19T05:21:44;98456.97;;;12.08;60.79
42519;BME280;28147;47.520;18.920;2023-02-19T05:24:10;98457.97;;;12.35;60.01
42519;BME280;28147;47.520;18.920;2023-02-19T05:26:35;98481.03;;;12.41;60.04
42519;BME280;28147;47.520;18.920;2023-02-19T05:29:01;98470.13;;;12.43;59.95
42519;BME280;28147;47.520;18.920;2023-02-19T05:31:26;98466.78;;;12.36;60.49
42519;BME280;28147;47.520;18.920;2023-02-19T05:33:55;98463.13;;;12.42;60.26
42519;BME280;28147;47.520;18.920;2023-02-19T05:36:21;98469.31;;;12.43;60.36
42519;BME280;28147;47.520;18.920;2023-02-19T05:38:47;98456.22;;;12.24;61.17
42519;BME280;28147;47.520;18.920;2023-02-19T05:41:18;98465.00;;;12.25;61.17
42519;BME280;28147;47.520;18.920;2023-02-19T05:43:45;98461.44;;;12.19;61.36
42519;BME280;28147;47.520;18.920;2023-02-19T05:46:13;98470.31;;;12.08;61.87
42519;BME280;28147;47.520;18.920;2023-02-19T05:48:38;98469.03;;;12.27;61.08
42519;BME280;28147;47.520;18.920;2023-02-19T05:51:10;98474.56;;;12.37;61.13
42519;BME280;28147;47.520;18.920;2023-02-19T05:53:36;98480.69;;;12.21;61.63
42519;BME280;28147;47.520;18.920;2023-02-19T05:56:02;98492.19;;;12.22;61.59
42519;BME280;28147;47.520;18.920;2023-02-19T05:58:27;98491.84;;;12.01;62.50
42519;BME280;28147;47.520;18.920;2023-02-19T06:00:53;98491.19;;;12.11;62.79
42519;BME280;28147;47.520;18.920;2023-02-19T06:03:19;98479.66;;;12.22;62.62
42519;BME280;28147;47.520;18.920;2023-02-19T06:05:44;98490.56;;;12.21;62.92
42519;BME280;28147;47.520;18.920;2023-02-19T06:08:14;98485.06;;;12.27;63.39
42519;BME280;28147;47.520;18.920;2023-02-19T06:10:40;98482.56;;;12.37;63.09
42519;BME280;28147;47.520;18.920;2023-02-19T06:13:08;98479.00;;;12.49;62.61
42519;BME280;28147;47.520;18.920;2023-02-19T06:15:33;98474.81;;;12.36;63.31
42519;BME280;28147;47.520;18.920;2023-02-19T06:18:00;98466.94;;;12.46;63.41
42519;BME280;28147;47.520;18.920;2023-02-19T06:20:26;98463.13;;;12.59;63.61
42519;BME280;28147;47.520;18.920;2023-02-19T06:22:51;98464.53;;;12.45;64.48
42519;BME280;28147;47.520;18.920;2023-02-19T06:25:17;98460.25;;;12.44;64.86
42519;BME280;28147;47.520;18.920;2023-02-19T06:27:43;98464.66;;;12.72;63.82
42519;BME280;28147;47.520;18.920;2023-02-19T06:30:09;98460.63;;;12.52;64.67
42519;BME280;28147;47.520;18.920;2023-02-19T06:32:35;98472.91;;;12.70;64.16
42519;BME280;28147;47.520;18.920;2023-02-19T06:35:00;98464.69;;;12.55;65.05
42519;BME280;28147;47.520;18.920;2023-02-19T06:37:26;98460.13;;;12.38;66.07
42519;BME280;28147;47.520;18.920;2023-02-19T06:39:51;98451.41;;;12.60;65.12
42519;BME280;28147;47.520;18.920;2023-02-19T06:42:17;98447.13;;;12.42;65.70
42519;BME280;28147;47.520;18.920;2023-02-19T06:44:42;98439.09;;;12.59;65.07
42519;BME280;28147;47.520;18.920;2023-02-19T06:47:08;98465.72;;;12.71;65.03
42519;BME280;28147;47.520;18.920;2023-02-19T06:49:33;98467.19;;;12.61;65.29
42519;BME280;28147;47.520;18.920;2023-02-19T06:51:58;98450.22;;;12.51;65.61
42519;BME280;28147;47.520;18.920;2023-02-19T06:54:25;98437.06;;;12.66;65.12
42519;BME280;28147;47.520;18.920;2023-02-19T06:56:51;98448.88;;;12.70;65.31
42519;BME280;28147;47.520;18.920;2023-02-19T06:59:16;98448.91;;;12.92;64.69
42519;BME280;28147;47.520;18.920;2023-02-19T07:01:43;98457.97;;;12.91;64.53
42519;BME280;28147;47.520;18.920;2023-02-19T07:04:08;98460.28;;;13.04;64.14
42519;BME280;28147;47.520;18.920;2023-02-19T07:06:34;98456.31;;;13.07;64.00
42519;BME280;28147;47.520;18.920;2023-02-19T07:09:00;98458.91;;;13.02;64.24
42519;BME280;28147;47.520;18.920;2023-02-19T07:11:29;98456.59;;;13.10;63.63
42519;BME280;28147;47.520;18.920;2023-02-19T07:13:56;98461.53;;;12.97;64.43
42519;BME280;28147;47.520;18.920;2023-02-19T07:16:22;98461.03;;;13.00;64.11
42519;BME280;28147;47.520;18.920;2023-02-19T07:18:47;98461.03;;;13.00;64.00
42519;BME280;28147;47.520;18.920;2023-02-19T07:21:13;98461.53;;;13.19;63.67
42519;BME280;28147;47.520;18.920;2023-02-19T07:23:40;98450.59;;;13.20;63.41
42519;BME280;28147;47.520;18.920;2023-02-19T07:26:11;98456.00;;;13.03;63.66
42519;BME280;28147;47.520;18.920;2023-02-19T07:28:38;98455.69;;;13.00;63.87
42519;BME280;28147;47.520;18.920;2023-02-19T07:31:04;98448.22;;;13.02;64.09
42519;BME280;28147;47.520;18.920;2023-02-19T07:33:30;98443.69;;;13.02;63.81
42519;BME280;28147;47.520;18.920;2023-02-19T07:35:55;98448.22;;;13.02;64.28
42519;BME280;28147;47.520;18.920;2023-02-19T07:38:22;98436.28;;;12.87;64.87
42519;BME280;28147;47.520;18.920;2023-02-19T07:40:56;98430.81;;;13.21;64.07
42519;BME280;28147;47.520;18.920;2023-02-19T07:43:23;98426.88;;;13.24;63.99
42519;BME280;28147;47.520;18.920;2023-02-19T07:45:49;98438.47;;;13.12;64.65
42519;BME280;28147;47.520;18.920;2023-02-19T07:48:15;98430.00;;;13.21;64.19
42519;BME280;28147;47.520;18.920;2023-02-19T07:50:41;98450.81;;;13.35;63.81
42519;BME280;28147;47.520;18.920;2023-02-19T07:53:14;98447.28;;;12.91;64.97
42519;BME280;28147;47.520;18.920;2023-02-19T07:55:39;98445.56;;;13.02;64.55
42519;BME280;28147;47.520;18.920;2023-02-19T07:58:05;98461.34;;;13.03;64.65
42519;BME280;28147;47.520;18.920;2023-02-19T08:00:30;98468.03;;;13.06;65.01
42519;BME280;28147;47.520;18.920;2023-02-19T08:02:55;98472.56;;;13.22;64.27
42519;BME280;28147;47.520;18.920;2023-02-19T08:05:24;98473.44;;;13.28;64.56
42519;BME280;28147;47.520;18.920;2023-02-19T08:07:50;98480.22;;;13.35;66.42
42519;BME280;28147;47.520;18.920;2023-02-19T08:10:15;98478.84;;;13.33;65.71
42519;BME280;28147;47.520;18.920;2023-02-19T08:13:14;98488.19;;;13.13;67.61
42519;BME280;28147;47.520;18.920;2023-02-19T08:15:45;98486.19;;;13.43;68.04
42519;BME280;28147;47.520;18.920;2023-02-19T08:18:12;98489.06;;;13.63;67.57
42519;BME280;28147;47.520;18.920;2023-02-19T08:20:38;98492.41;;;13.09;69.28
42519;BME280;28147;47.520;18.920;2023-02-19T08:23:04;98505.84;;;13.31;68.85
42519;BME280;28147;47.520;18.920;2023-02-19T08:25:30;98500.75;;;13.13;69.96
42519;BME280;28147;47.520;18.920;2023-02-19T08:27:56;98493.31;;;13.15;70.75
42519;BME280;28147;47.520;18.920;2023-02-19T08:30:22;98497.59;;;13.16;71.16
42519;BME280;28147;47.520;18.920;2023-02-19T08:32:47;98487.88;;;13.10;71.46
42519;BME280;28147;47.520;18.920;2023-02-19T08:35:13;98497.00;;;13.31;71.45
42519;BME280;28147;47.520;18.920;2023-02-19T08:37:38;98486.25;;;13.09;72.28
42519;BME280;28147;47.520;18.920;2023-02-19T08:40:04;98481.22;;;12.90;73.21
42519;BME280;28147;47.520;18.920;2023-02-19T08:42:30;98488.13;;;12.70;74.58
42519;BME280;28147;47.520;18.920;2023-02-19T08:44:55;98481.16;;;12.85;74.40
42519;BME280;28147;47.520;18.920;2023-02-19T08:47:21;98481.47;;;12.89;74.50
42519;BME280;28147;47.520;18.920;2023-02-19T08:49:46;98480.78;;;12.77;75.14
42519;BME280;28147;47.520;18.920;2023-02-19T08:52:12;98479.03;;;12.87;75.19
42519;BME280;28147;47.520;18.920;2023-02-19T08:54:37;98473.03;;;12.80;74.60
42519;BME280;28147;47.520;18.920;2023-02-19T08:57:03;98489.38;;;12.84;75.83
42519;BME280;28147;47.520;18.920;2023-02-19T08:59:29;98494.34;;;13.14;74.79
42519;BME280;28147;47.520;18.920;2023-02-19T09:01:57;98484.47;;;12.93;75.55
42519;BME280;28147;47.520;18.920;2023-02-19T09:04:22;98489.81;;;12.93;75.89
42519;BME280;28147;47.520;18.920;2023-02-19T09:06:48;98489.28;;;12.40;77.64
42519;BME280;28147;47.520;18.920;2023-02-19T09:09:13;98483.66;;;12.75;76.40
42519;BME280;28147;47.520;18.920;2023-02-19T09:11:38;98481.59;;;12.44;78.36
42519;BME280;28147;47.520;18.920;2023-02-19T09:14:04;98493.06;;;12.61;77.83
42519;BME280;28147;47.520;18.920;2023-02-19T09:16:32;98482.16;;;12.62;77.63
42519;BME280;28147;47.520;18.920;2023-02-19T09:18:58;98488.78;;;12.77;76.86
42519;BME280;28147;47.520;18.920;2023-02-19T09:21:23;98485.69;;;12.68;77.08
42519;BME280;28147;47.520;18.920;2023-02-19T09:23:49;98491.34;;;12.88;76.75
42519;BME280;28147;47.520;18.920;2023-02-19T09:26:14;98480.44;;;12.73;77.41
42519;BME280;28147;47.520;18.920;2023-02-19T09:28:40;98489.31;;;12.96;76.79
42519;BME280;28147;47.520;18.920;2023-02-19T09:31:13;98489.22;;;12.90;76.46
42519;BME280;28147;47.520;18.920;2023-02-19T09:33:47;98482.38;;;12.78;76.79
42519;BME280;28147;47.520;18.920;2023-02-19T09:36:14;98475.50;;;12.82;76.47
42519;BME280;28147;47.520;18.920;2023-02-19T09:38:40;98480.09;;;12.86;76.46
42519;BME280;28147;47.520;18.920;2023-02-19T09:41:08;98473.34;;;12.84;77.14
42519;BME280;28147;47.520;18.920;2023-02-19T09:43:37;98459.94;;;12.79;76.08
42519;BME280;28147;47.520;18.920;2023-02-19T09:46:29;98477.50;;;13.13;75.70
42519;BME280;28147;47.520;18.920;2023-02-19T09:49:04;98469.38;;;13.25;75.01
42519;BME280;28147;47.520;18.920;2023-02-19T09:51:33;98463.94;;;12.98;77.10
42519;BME280;28147;47.520;18.920;2023-02-19T09:54:02;98474.59;;;13.15;75.91
42519;BME280;28147;47.520;18.920;2023-02-19T09:56:28;98470.94;;;13.43;75.49
42519;BME280;28147;47.520;18.920;2023-02-19T09:58:56;98467.41;;;13.37;74.69
42519;BME280;28147;47.520;18.920;2023-02-19T10:01:26;98477.22;;;13.54;74.42
42519;BME280;28147;47.520;18.920;2023-02-19T10:03:53;98463.00;;;13.75;74.35
42519;BME280;28147;47.520;18.920;2023-02-19T10:06:21;98458.59;;;14.23;72.86
42519;BME280;28147;47.520;18.920;2023-02-19T10:08:55;98455.34;;;14.16;74.37
42519;BME280;28147;47.520;18.920;2023-02-19T10:11:24;98444.66;;;13.89;74.49
42519;BME280;28147;47.520;18.920;2023-02-19T10:14:09;98453.41;;;14.06;73.37
42519;BME280;28147;47.520;18.920;2023-02-19T10:16:39;98445.22;;;14.23;73.09
42519;BME280;28147;47.520;18.920;2023-02-19T10:19:10;98448.25;;;14.69;71.82
42519;BME280;28147;47.520;18.920;2023-02-19T10:21:36;98444.75;;;14.69;72.77
42519;BME280;28147;47.520;18.920;2023-02-19T10:24:04;98440.56;;;14.46;72.69
42519;BME280;28147;47.520;18.920;2023-02-19T10:26:30;98435.22;;;14.83;72.03
42519;BME280;28147;47.520;18.920;2023-02-19T10:28:59;98432.72;;;14.71;72.01
42519;BME280;28147;47.520;18.920;2023-02-19T10:31:25;98430.03;;;14.66;70.85
42519;BME280;28147;47.520;18.920;2023-02-19T10:33:55;98429.34;;;14.86;71.00
42519;BME280;28147;47.520;18.920;2023-02-19T10:36:49;98435.84;;;15.00;70.43
42519;BME280;28147;47.520;18.920;2023-02-19T10:41:47;98423.69;;;14.82;69.41
42519;BME280;28147;47.520;18.920;2023-02-19T10:44:17;98415.91;;;15.64;67.52
42519;BME280;28147;47.520;18.920;2023-02-19T10:46:45;98403.38;;;15.80;67.59
42519;BME280;28147;47.520;18.920;2023-02-19T10:49:46;98410.34;;;16.37;65.85
42519;BME280;28147;47.520;18.920;2023-02-19T10:54:48;98407.09;;;16.56;63.61
42519;BME280;28147;47.520;18.920;2023-02-19T10:59:53;98412.41;;;15.64;63.23
42519;BME280;28147;47.520;18.920;2023-02-19T11:02:22;98396.31;;;15.53;62.77
42519;BME280;28147;47.520;18.920;2023-02-19T11:07:30;98390.94;;;15.64;61.99
42519;BME280;28147;47.520;18.920;2023-02-19T11:09:57;98388.53;;;15.62;61.89
42519;BME280;28147;47.520;18.920;2023-02-19T11:12:29;98384.41;;;15.19;62.87
42519;BME280;28147;47.520;18.920;2023-02-19T11:14:55;98399.06;;;14.91;63.54
42519;BME280;28147;47.520;18.920;2023-02-19T11:17:28;98385.31;;;14.29;64.30
42519;BME280;28147;47.520;18.920;2023-02-19T11:20:07;98396.41;;;14.48;63.87
42519;BME280;28147;47.520;18.920;2023-02-19T11:22:37;98395.34;;;14.49;62.77
42519;BME280;28147;47.520;18.920;2023-02-19T11:25:18;98397.31;;;14.59;63.06
42519;BME280;28147;47.520;18.920;2023-02-19T11:30:34;98371.03;;;14.61;61.82
42519;BME280;28147;47.520;18.920;2023-02-19T11:33:26;98382.50;;;15.04;60.36
42519;BME280;28147;47.520;18.920;2023-02-19T11:36:19;98361.03;;;14.99;60.59
42519;BME280;28147;47.520;18.920;2023-02-19T11:38:46;98369.00;;;15.97;57.78
42519;BME280;28147;47.520;18.920;2023-02-19T11:46:45;98334.56;;;16.40;56.01
42519;BME280;28147;47.520;18.920;2023-02-19T11:54:30;98325.06;;;16.68;53.88
42519;BME280;28147;47.520;18.920;2023-02-19T11:57:05;98323.03;;;17.05;53.38
42519;BME280;28147;47.520;18.920;2023-02-19T12:08:37;98307.91;;;17.92;51.06
42519;BME280;28147;47.520;18.920;2023-02-19T12:14:26;98294.28;;;16.40;52.36
42519;BME280;28147;47.520;18.920;2023-02-19T12:19:45;98289.94;;;16.49;52.88
42519;BME280;28147;47.520;18.920;2023-02-19T12:22:35;98287.94;;;15.95;53.00
42519;BME280;28147;47.520;18.920;2023-02-19T12:28:27;98288.47;;;15.67;53.91
42519;BME280;28147;47.520;18.920;2023-02-19T12:39:03;98280.69;;;15.50;54.94
42519;BME280;28147;47.520;18.920;2023-02-19T12:41:37;98283.09;;;15.82;54.28
42519;BME280;28147;47.520;18.920;2023-02-19T12:44:24;98277.97;;;16.01;54.12
42519;BME280;28147;47.520;18.920;2023-02-19T12:46:58;98279.56;;;16.02;53.52
42519;BME280;28147;47.520;18.920;2023-02-19T12:51:59;98294.59;;;16.08;53.40
42519;BME280;28147;47.520;18.920;2023-02-19T12:54:29;98308.03;;;16.08;54.18
42519;BME280;28147;47.520;18.920;2023-02-19T13:00:06;98301.16;;;14.73;56.49
42519;BME280;28147;47.520;18.920;2023-02-19T13:02:44;98301.38;;;14.51;56.72
42519;BME280;28147;47.520;18.920;2023-02-19T13:05:39;98294.44;;;14.65;57.34
42519;BME280;28147;47.520;18.920;2023-02-19T13:08:14;98287.97;;;14.51;57.62
42519;BME280;28147;47.520;18.920;2023-02-19T13:10:49;98282.84;;;14.49;57.41
42519;BME280;28147;47.520;18.920;2023-02-19T13:13:22;98254.00;;;14.67;57.23
42519;BME280;28147;47.520;18.920;2023-02-19T13:15:52;98256.22;;;15.05;56.94
42519;BME280;28147;47.520;18.920;2023-02-19T13:18:33;98253.28;;;15.17;56.78
42519;BME280;28147;47.520;18.920;2023-02-19T13:21:00;98248.19;;;15.26;55.69
42519;BME280;28147;47.520;18.920;2023-02-19T13:23:29;98245.72;;;14.89;54.96
42519;BME280;28147;47.520;18.920;2023-02-19T13:36:52;98225.66;;;15.68;53.23
42519;BME280;28147;47.520;18.920;2023-02-19T13:39:19;98228.34;;;15.52;53.06
42519;BME280;28147;47.520;18.920;2023-02-19T13:41:53;98244.44;;;15.22;53.49
42519;BME280;28147;47.520;18.920;2023-02-19T13:44:23;98253.31;;;15.27;53.83
42519;BME280;28147;47.520;18.920;2023-02-19T13:46:49;98254.09;;;15.33;53.73
42519;BME280;28147;47.520;18.920;2023-02-19T13:51:57;98278.19;;;15.07;56.25
42519;BME280;28147;47.520;18.920;2023-02-19T13:59:42;98324.38;;;13.18;66.07
42519;BME280;28147;47.520;18.920;2023-02-19T14:02:13;98359.09;;;12.91;68.86
42519;BME280;28147;47.520;18.920;2023-02-19T14:07:37;98330.28;;;12.71;70.47
42519;BME280;28147;47.520;18.920;2023-02-19T14:10:14;98330.66;;;13.02;70.32
42519;BME280;28147;47.520;18.920;2023-02-19T14:12:58;98337.63;;;12.81;71.52
42519;BME280;28147;47.520;18.920;2023-02-19T14:17:49;98341.91;;;12.82;71.78
42519;BME280;28147;47.520;18.920;2023-02-19T14:33:14;98378.38;;;12.71;69.07
42519;BME280;28147;47.520;18.920;2023-02-19T14:35:44;98374.50;;;13.06;68.74
42519;BME280;28147;47.520;18.920;2023-02-19T14:40:57;98377.94;;;12.79;69.33
42519;BME280;28147;47.520;18.920;2023-02-19T14:43:25;98359.56;;;12.83;70.06
42519;BME280;28147;47.520;18.920;2023-02-19T14:45:55;98369.38;;;12.77;69.91
42519;BME280;28147;47.520;18.920;2023-02-19T14:48:32;98365.44;;;12.63;70.54
42519;BME280;28147;47.520;18.920;2023-02-19T14:51:05;98363.03;;;12.83;70.02
42519;BME280;28147;47.520;18.920;2023-02-19T14:53:37;98368.75;;;12.70;70.59
42519;BME280;28147;47.520;18.920;2023-02-19T14:56:03;98365.13;;;12.59;70.45
42519;BME280;28147;47.520;18.920;2023-02-19T14:58:31;98353.03;;;12.96;69.75
42519;BME280;28147;47.520;18.920;2023-02-19T15:00:58;98351.78;;;12.81;70.00
42519;BME280;28147;47.520;18.920;2023-02-19T15:03:35;98362.91;;;12.95;68.70
42519;BME280;28147;47.520;18.920;2023-02-19T15:06:04;98369.84;;;12.52;69.61
42519;BME280;28147;47.520;18.920;2023-02-19T15:08:35;98375.44;;;12.73;68.74
42519;BME280;28147;47.520;18.920;2023-02-19T15:11:03;98380.28;;;12.76;68.05
42519;BME280;28147;47.520;18.920;2023-02-19T15:13:32;98387.31;;;12.60;68.64